sensor_id;sensor_type;location;lat;lon;timestamp;P1;durP1;ratioP1;P2;durP2;ratioP2
9467;SDS011;4772;52.382;9.752;2023-10-19T00:02:04;20.17;;;16.60;;
9467;SDS011;4772;52.382;9.752;2023-10-19T00:04:31;21.53;;;16.97;;
9467;SDS011;4772;52.382;9.752;2023-10-19T00:06:59;21.37;;;16.83;;
9467;SDS011;4772;52.382;9.752;2023-10-19T00:09:25;19.00;;;16.47;;
9467;SDS011;4772;52.382;9.752;2023-10-19T00:11:56;21.50;;;17.30;;
9467;SDS011;4772;52.382;9.752;2023-10-19T00:14:22;20.67;;;16.87;;
9467;SDS011;4772;52.382;9.752;2023-10-19T00:16:51;21.00;;;17.57;;
9467;SDS011;4772;52.382;9.752;2023-10-19T00:19:25;21.17;;;17.27;;
9467;SDS011;4772;52.382;9.752;2023-10-19T00:21:52;23.20;;;17.60;;
9467;SDS011;4772;52.382;9.752;2023-10-19T00:24:33;23.10;;;17.87;;
9467;SDS011;4772;52.382;9.752;2023-10-19T00:26:58;21.60;;;17.90;;
9467;SDS011;4772;52.382;9.752;2023-10-19T00:29:39;22.97;;;19.03;;
9467;SDS011;4772;52.382;9.752;2023-10-19T00:32:05;23.60;;;19.33;;
9467;SDS011;4772;52.382;9.752;2023-10-19T00:34:38;25.23;;;20.77;;
9467;SDS011;4772;52.382;9.752;2023-10-19T00:37:04;23.50;;;19.60;;
9467;SDS011;4772;52.382;9.752;2023-10-19T00:39:36;25.30;;;19.83;;
9467;SDS011;4772;52.382;9.752;2023-10-19T00:42:08;23.30;;;18.43;;
9467;SDS011;4772;52.382;9.752;2023-10-19T00:44:34;24.07;;;20.63;;
9467;SDS011;4772;52.382;9.752;2023-10-19T00:47:02;27.50;;;20.43;;
9467;SDS011;4772;52.382;9.752;2023-10-19T00:49:28;27.63;;;21.77;;
9467;SDS011;4772;52.382;9.752;2023-10-19T00:51:55;31.23;;;21.47;;
9467;SDS011;4772;52.382;9.752;2023-10-19T00:54:32;26.63;;;21.60;;
9467;SDS011;4772;52.382;9.752;2023-10-19T00:56:59;29.80;;;20.13;;
9467;SDS011;4772;52.382;9.752;2023-10-19T00:59:31;26.70;;;21.97;;
9467;SDS011;4772;52.382;9.752;2023-10-19T01:02:01;26.90;;;21.67;;
9467;SDS011;4772;52.382;9.752;2023-10-19T01:04:45;26.17;;;22.37;;
9467;SDS011;4772;52.382;9.752;2023-10-19T01:07:15;25.17;;;21.10;;
9467;SDS011;4772;52.382;9.752;2023-10-19T01:09:46;29.60;;;23.57;;
9467;SDS011;4772;52.382;9.752;2023-10-19T01:12:12;29.07;;;23.50;;
9467;SDS011;4772;52.382;9.752;2023-10-19T01:17:58;30.67;;;24.63;;
9467;SDS011;4772;52.382;9.752;2023-10-19T01:25:46;33.73;;;26.00;;
9467;SDS011;4772;52.382;9.752;2023-10-19T01:28:25;30.70;;;23.77;;
9467;SDS011;4772;52.382;9.752;2023-10-19T01:31:03;35.70;;;27.47;;
9467;SDS011;4772;52.382;9.752;2023-10-19T01:33:32;32.97;;;25.70;;
9467;SDS011;4772;52.382;9.752;2023-10-19T01:36:01;35.60;;;27.23;;
9467;SDS011;4772;52.382;9.752;2023-10-19T01:38:36;38.10;;;28.23;;
9467;SDS011;4772;52.382;9.752;2023-10-19T01:41:03;35.60;;;27.03;;
9467;SDS011;4772;52.382;9.752;2023-10-19T01:43:39;37.73;;;28.13;;
9467;SDS011;4772;52.382;9.752;2023-10-19T01:46:06;37.07;;;27.17;;
9467;SDS011;4772;52.382;9.752;2023-10-19T01:48:37;37.47;;;26.87;;
9467;SDS011;4772;52.382;9.752;2023-10-19T01:51:04;39.33;;;27.63;;
9467;SDS011;4772;52.382;9.752;2023-10-19T01:53:31;37.97;;;28.37;;
9467;SDS011;4772;52.382;9.752;2023-10-19T01:55:57;34.50;;;28.63;;
9467;SDS011;4772;52.382;9.752;2023-10-19T01:58:26;35.03;;;27.90;;
9467;SDS011;4772;52.382;9.752;2023-10-19T02:00:53;35.90;;;27.60;;
9467;SDS011;4772;52.382;9.752;2023-10-19T02:03:20;37.37;;;28.77;;
9467;SDS011;4772;52.382;9.752;2023-10-19T02:05:48;38.67;;;28.83;;
9467;SDS011;4772;52.382;9.752;2023-10-19T02:08:15;38.17;;;28.27;;
9467;SDS011;4772;52.382;9.752;2023-10-19T02:10:48;35.13;;;28.13;;
9467;SDS011;4772;52.382;9.752;2023-10-19T02:13:14;35.93;;;26.40;;
9467;SDS011;4772;52.382;9.752;2023-10-19T02:15:42;32.80;;;26.33;;
9467;SDS011;4772;52.382;9.752;2023-10-19T02:18:09;36.03;;;27.23;;
9467;SDS011;4772;52.382;9.752;2023-10-19T02:20:35;34.20;;;27.80;;
9467;SDS011;4772;52.382;9.752;2023-10-19T02:23:05;33.93;;;26.97;;
9467;SDS011;4772;52.382;9.752;2023-10-19T02:25:31;33.93;;;24.50;;
9467;SDS011;4772;52.382;9.752;2023-10-19T02:28:01;33.00;;;24.57;;
9467;SDS011;4772;52.382;9.752;2023-10-19T02:30:28;32.60;;;26.03;;
9467;SDS011;4772;52.382;9.752;2023-10-19T02:32:55;36.20;;;28.03;;
9467;SDS011;4772;52.382;9.752;2023-10-19T02:35:21;36.43;;;27.73;;
9467;SDS011;4772;52.382;9.752;2023-10-19T02:37:48;34.50;;;26.50;;
9467;SDS011;4772;52.382;9.752;2023-10-19T02:40:14;37.67;;;27.57;;
9467;SDS011;4772;52.382;9.752;2023-10-19T02:42:48;40.27;;;27.77;;
9467;SDS011;4772;52.382;9.752;2023-10-19T02:45:18;30.40;;;22.70;;
9467;SDS011;4772;52.382;9.752;2023-10-19T02:47:44;35.83;;;26.67;;
9467;SDS011;4772;52.382;9.752;2023-10-19T02:50:11;38.57;;;27.73;;
9467;SDS011;4772;52.382;9.752;2023-10-19T02:52:42;38.90;;;28.67;;
9467;SDS011;4772;52.382;9.752;2023-10-19T02:55:10;44.23;;;29.93;;
9467;SDS011;4772;52.382;9.752;2023-10-19T02:57:36;38.17;;;29.33;;
9467;SDS011;4772;52.382;9.752;2023-10-19T03:00:05;38.90;;;29.37;;
9467;SDS011;4772;52.382;9.752;2023-10-19T03:02:39;39.83;;;29.20;;
9467;SDS011;4772;52.382;9.752;2023-10-19T03:05:05;39.57;;;27.60;;
9467;SDS011;4772;52.382;9.752;2023-10-19T03:07:39;38.50;;;29.27;;
9467;SDS011;4772;52.382;9.752;2023-10-19T03:10:06;36.80;;;27.13;;
9467;SDS011;4772;52.382;9.752;2023-10-19T03:12:32;40.43;;;30.47;;
9467;SDS011;4772;52.382;9.752;2023-10-19T03:14:58;38.97;;;28.63;;
9467;SDS011;4772;52.382;9.752;2023-10-19T03:17:25;44.10;;;31.23;;
9467;SDS011;4772;52.382;9.752;2023-10-19T03:19:53;40.10;;;29.40;;
9467;SDS011;4772;52.382;9.752;2023-10-19T03:22:20;37.80;;;29.80;;
9467;SDS011;4772;52.382;9.752;2023-10-19T03:24:46;39.43;;;29.60;;
9467;SDS011;4772;52.382;9.752;2023-10-19T03:27:13;39.10;;;29.77;;
9467;SDS011;4772;52.382;9.752;2023-10-19T03:29:42;39.40;;;28.93;;
9467;SDS011;4772;52.382;9.752;2023-10-19T03:32:11;41.37;;;29.80;;
9467;SDS011;4772;52.382;9.752;2023-10-19T03:34:38;42.67;;;30.40;;
9467;SDS011;4772;52.382;9.752;2023-10-19T03:37:04;38.87;;;28.77;;
9467;SDS011;4772;52.382;9.752;2023-10-19T03:39:31;41.57;;;30.33;;
9467;SDS011;4772;52.382;9.752;2023-10-19T03:41:58;39.37;;;29.57;;
9467;SDS011;4772;52.382;9.752;2023-10-19T03:44:24;40.40;;;29.47;;
9467;SDS011;4772;52.382;9.752;2023-10-19T03:46:50;41.23;;;29.67;;
9467;SDS011;4772;52.382;9.752;2023-10-19T03:49:26;42.43;;;31.03;;
9467;SDS011;4772;52.382;9.752;2023-10-19T03:51:58;39.40;;;29.77;;
9467;SDS011;4772;52.382;9.752;2023-10-19T03:54:44;42.03;;;29.73;;
9467;SDS011;4772;52.382;9.752;2023-10-19T03:57:12;40.70;;;31.20;;
9467;SDS011;4772;52.382;9.752;2023-10-19T03:59:46;39.77;;;30.10;;
9467;SDS011;4772;52.382;9.752;2023-10-19T04:02:14;38.50;;;30.03;;
9467;SDS011;4772;52.382;9.752;2023-10-19T04:04:45;39.83;;;29.97;;
9467;SDS011;4772;52.382;9.752;2023-10-19T04:07:13;38.90;;;29.57;;
9467;SDS011;4772;52.382;9.752;2023-10-19T04:09:51;38.47;;;29.77;;
9467;SDS011;4772;52.382;9.752;2023-10-19T04:12:33;38.33;;;30.27;;
9467;SDS011;4772;52.382;9.752;2023-10-19T04:15:03;37.67;;;29.20;;
9467;SDS011;4772;52.382;9.752;2023-10-19T04:17:35;38.90;;;28.83;;
9467;SDS011;4772;52.382;9.752;2023-10-19T04:20:01;37.50;;;29.07;;
9467;SDS011;4772;52.382;9.752;2023-10-19T04:22:47;39.20;;;28.93;;
9467;SDS011;4772;52.382;9.752;2023-10-19T04:25:14;37.23;;;27.93;;
9467;SDS011;4772;52.382;9.752;2023-10-19T04:27:41;38.17;;;29.87;;
9467;SDS011;4772;52.382;9.752;2023-10-19T04:30:11;35.07;;;27.70;;
9467;SDS011;4772;52.382;9.752;2023-10-19T04:32:47;30.30;;;23.77;;
9467;SDS011;4772;52.382;9.752;2023-10-19T04:35:13;37.10;;;27.77;;
9467;SDS011;4772;52.382;9.752;2023-10-19T04:37:40;35.17;;;27.63;;
9467;SDS011;4772;52.382;9.752;2023-10-19T04:40:08;31.40;;;24.40;;
9467;SDS011;4772;52.382;9.752;2023-10-19T04:42:34;36.70;;;27.97;;
9467;SDS011;4772;52.382;9.752;2023-10-19T04:45:01;35.33;;;27.37;;
9467;SDS011;4772;52.382;9.752;2023-10-19T04:47:27;36.03;;;27.13;;
9467;SDS011;4772;52.382;9.752;2023-10-19T04:49:53;34.57;;;26.10;;
9467;SDS011;4772;52.382;9.752;2023-10-19T04:52:20;31.60;;;25.47;;
9467;SDS011;4772;52.382;9.752;2023-10-19T04:54:46;34.00;;;25.57;;
9467;SDS011;4772;52.382;9.752;2023-10-19T04:57:12;37.30;;;27.87;;
9467;SDS011;4772;52.382;9.752;2023-10-19T04:59:38;30.97;;;23.87;;
9467;SDS011;4772;52.382;9.752;2023-10-19T05:02:04;31.43;;;24.87;;
9467;SDS011;4772;52.382;9.752;2023-10-19T05:04:31;29.67;;;23.37;;
9467;SDS011;4772;52.382;9.752;2023-10-19T05:06:57;26.50;;;20.93;;
9467;SDS011;4772;52.382;9.752;2023-10-19T05:09:23;27.73;;;22.03;;
9467;SDS011;4772;52.382;9.752;2023-10-19T05:11:49;32.00;;;23.13;;
9467;SDS011;4772;52.382;9.752;2023-10-19T05:14:17;28.77;;;21.57;;
9467;SDS011;4772;52.382;9.752;2023-10-19T05:16:43;28.30;;;21.00;;
9467;SDS011;4772;52.382;9.752;2023-10-19T05:19:09;25.33;;;20.90;;
9467;SDS011;4772;52.382;9.752;2023-10-19T05:21:35;29.63;;;23.33;;
9467;SDS011;4772;52.382;9.752;2023-10-19T05:24:01;26.47;;;21.50;;
9467;SDS011;4772;52.382;9.752;2023-10-19T05:26:27;28.10;;;22.30;;
9467;SDS011;4772;52.382;9.752;2023-10-19T05:28:53;24.53;;;20.70;;
9467;SDS011;4772;52.382;9.752;2023-10-19T05:31:19;25.90;;;21.17;;
9467;SDS011;4772;52.382;9.752;2023-10-19T05:33:45;26.63;;;20.23;;
9467;SDS011;4772;52.382;9.752;2023-10-19T05:36:14;25.80;;;21.83;;
9467;SDS011;4772;52.382;9.752;2023-10-19T05:38:40;23.80;;;20.27;;
9467;SDS011;4772;52.382;9.752;2023-10-19T05:41:06;22.20;;;18.57;;
9467;SDS011;4772;52.382;9.752;2023-10-19T05:43:32;24.80;;;19.83;;
9467;SDS011;4772;52.382;9.752;2023-10-19T05:46:02;23.70;;;17.60;;
9467;SDS011;4772;52.382;9.752;2023-10-19T05:48:28;22.47;;;19.37;;
9467;SDS011;4772;52.382;9.752;2023-10-19T05:50:54;24.00;;;19.60;;
9467;SDS011;4772;52.382;9.752;2023-10-19T05:53:20;25.00;;;19.83;;
9467;SDS011;4772;52.382;9.752;2023-10-19T05:55:47;22.33;;;18.63;;
9467;SDS011;4772;52.382;9.752;2023-10-19T05:58:14;21.00;;;18.57;;
9467;SDS011;4772;52.382;9.752;2023-10-19T06:00:40;21.93;;;18.00;;
9467;SDS011;4772;52.382;9.752;2023-10-19T06:03:06;20.07;;;17.77;;
9467;SDS011;4772;52.382;9.752;2023-10-19T06:05:32;21.10;;;17.60;;
9467;SDS011;4772;52.382;9.752;2023-10-19T06:07:58;18.50;;;15.10;;
9467;SDS011;4772;52.382;9.752;2023-10-19T06:10:25;18.20;;;16.17;;
9467;SDS011;4772;52.382;9.752;2023-10-19T06:12:51;18.43;;;15.87;;
9467;SDS011;4772;52.382;9.752;2023-10-19T06:15:18;19.50;;;15.73;;
9467;SDS011;4772;52.382;9.752;2023-10-19T06:17:46;18.53;;;16.00;;
9467;SDS011;4772;52.382;9.752;2023-10-19T06:20:13;18.20;;;16.27;;
9467;SDS011;4772;52.382;9.752;2023-10-19T06:22:52;18.83;;;16.83;;
9467;SDS011;4772;52.382;9.752;2023-10-19T06:25:19;20.43;;;17.17;;
9467;SDS011;4772;52.382;9.752;2023-10-19T06:27:46;20.00;;;16.33;;
9467;SDS011;4772;52.382;9.752;2023-10-19T06:30:12;19.77;;;17.03;;
9467;SDS011;4772;52.382;9.752;2023-10-19T06:32:43;18.13;;;15.50;;
9467;SDS011;4772;52.382;9.752;2023-10-19T06:35:09;19.30;;;15.03;;
9467;SDS011;4772;52.382;9.752;2023-10-19T06:37:36;19.93;;;16.53;;
9467;SDS011;4772;52.382;9.752;2023-10-19T06:40:02;19.20;;;16.17;;
9467;SDS011;4772;52.382;9.752;2023-10-19T06:42:29;19.07;;;15.43;;
9467;SDS011;4772;52.382;9.752;2023-10-19T06:44:56;20.13;;;15.60;;
9467;SDS011;4772;52.382;9.752;2023-10-19T06:47:22;19.80;;;16.33;;
9467;SDS011;4772;52.382;9.752;2023-10-19T06:49:48;18.77;;;16.13;;
9467;SDS011;4772;52.382;9.752;2023-10-19T06:52:15;19.37;;;16.57;;
9467;SDS011;4772;52.382;9.752;2023-10-19T06:54:41;19.67;;;16.30;;
9467;SDS011;4772;52.382;9.752;2023-10-19T06:57:07;16.50;;;14.53;;
9467;SDS011;4772;52.382;9.752;2023-10-19T06:59:34;18.53;;;15.77;;
9467;SDS011;4772;52.382;9.752;2023-10-19T07:02:00;19.43;;;15.93;;
9467;SDS011;4772;52.382;9.752;2023-10-19T07:04:26;18.33;;;15.73;;
9467;SDS011;4772;52.382;9.752;2023-10-19T07:06:53;18.23;;;15.67;;
9467;SDS011;4772;52.382;9.752;2023-10-19T07:09:18;16.63;;;14.27;;
9467;SDS011;4772;52.382;9.752;2023-10-19T07:11:46;16.83;;;14.70;;
9467;SDS011;4772;52.382;9.752;2023-10-19T07:14:12;17.27;;;14.00;;
9467;SDS011;4772;52.382;9.752;2023-10-19T07:16:39;15.80;;;13.47;;
9467;SDS011;4772;52.382;9.752;2023-10-19T07:19:05;15.47;;;12.43;;
9467;SDS011;4772;52.382;9.752;2023-10-19T07:21:32;13.77;;;11.93;;
9467;SDS011;4772;52.382;9.752;2023-10-19T07:24:01;16.43;;;13.03;;
9467;SDS011;4772;52.382;9.752;2023-10-19T07:26:30;14.07;;;12.47;;
9467;SDS011;4772;52.382;9.752;2023-10-19T07:28:58;14.00;;;12.50;;
9467;SDS011;4772;52.382;9.752;2023-10-19T07:31:25;13.40;;;11.53;;
9467;SDS011;4772;52.382;9.752;2023-10-19T07:33:52;13.27;;;11.83;;
9467;SDS011;4772;52.382;9.752;2023-10-19T07:36:20;12.83;;;11.20;;
9467;SDS011;4772;52.382;9.752;2023-10-19T07:38:48;12.70;;;10.93;;
9467;SDS011;4772;52.382;9.752;2023-10-19T07:41:16;11.83;;;10.63;;
9467;SDS011;4772;52.382;9.752;2023-10-19T07:43:42;13.13;;;11.23;;
9467;SDS011;4772;52.382;9.752;2023-10-19T07:46:09;12.43;;;11.03;;
9467;SDS011;4772;52.382;9.752;2023-10-19T07:48:36;12.83;;;11.40;;
9467;SDS011;4772;52.382;9.752;2023-10-19T07:51:03;12.43;;;10.83;;
9467;SDS011;4772;52.382;9.752;2023-10-19T07:53:29;12.60;;;10.87;;
9467;SDS011;4772;52.382;9.752;2023-10-19T07:55:55;12.50;;;11.00;;
9467;SDS011;4772;52.382;9.752;2023-10-19T07:58:24;11.20;;;10.10;;
9467;SDS011;4772;52.382;9.752;2023-10-19T08:00:52;12.00;;;10.80;;
9467;SDS011;4772;52.382;9.752;2023-10-19T08:03:18;11.90;;;10.10;;
9467;SDS011;4772;52.382;9.752;2023-10-19T08:05:44;11.27;;;10.03;;
9467;SDS011;4772;52.382;9.752;2023-10-19T08:08:10;11.47;;;10.00;;
9467;SDS011;4772;52.382;9.752;2023-10-19T08:10:37;10.97;;;9.00;;
9467;SDS011;4772;52.382;9.752;2023-10-19T08:13:03;12.40;;;9.90;;
9467;SDS011;4772;52.382;9.752;2023-10-19T08:15:29;11.63;;;9.80;;
9467;SDS011;4772;52.382;9.752;2023-10-19T08:17:56;10.50;;;8.83;;
9467;SDS011;4772;52.382;9.752;2023-10-19T08:20:22;11.37;;;8.53;;
9467;SDS011;4772;52.382;9.752;2023-10-19T08:22:48;10.37;;;9.27;;
9467;SDS011;4772;52.382;9.752;2023-10-19T08:25:15;9.80;;;8.80;;
9467;SDS011;4772;52.382;9.752;2023-10-19T08:27:41;10.00;;;8.80;;
9467;SDS011;4772;52.382;9.752;2023-10-19T08:30:10;9.77;;;8.00;;
9467;SDS011;4772;52.382;9.752;2023-10-19T08:32:37;9.43;;;8.43;;
9467;SDS011;4772;52.382;9.752;2023-10-19T08:35:04;10.03;;;8.47;;
9467;SDS011;4772;52.382;9.752;2023-10-19T08:37:30;9.70;;;8.70;;
9467;SDS011;4772;52.382;9.752;2023-10-19T08:39:56;9.37;;;8.47;;
9467;SDS011;4772;52.382;9.752;2023-10-19T08:42:23;9.40;;;8.50;;
9467;SDS011;4772;52.382;9.752;2023-10-19T08:44:49;10.70;;;8.10;;
9467;SDS011;4772;52.382;9.752;2023-10-19T08:47:16;8.73;;;7.90;;
9467;SDS011;4772;52.382;9.752;2023-10-19T08:49:42;8.50;;;7.70;;
9467;SDS011;4772;52.382;9.752;2023-10-19T08:52:08;8.93;;;8.03;;
9467;SDS011;4772;52.382;9.752;2023-10-19T08:54:34;8.93;;;7.90;;
9467;SDS011;4772;52.382;9.752;2023-10-19T08:57:00;9.50;;;8.50;;
9467;SDS011;4772;52.382;9.752;2023-10-19T08:59:27;8.70;;;7.80;;
9467;SDS011;4772;52.382;9.752;2023-10-19T09:02:02;8.83;;;7.93;;
9467;SDS011;4772;52.382;9.752;2023-10-19T09:04:29;9.23;;;8.33;;
9467;SDS011;4772;52.382;9.752;2023-10-19T09:06:55;8.23;;;7.40;;
9467;SDS011;4772;52.382;9.752;2023-10-19T09:09:21;9.50;;;8.57;;
9467;SDS011;4772;52.382;9.752;2023-10-19T09:11:50;8.90;;;8.00;;
9467;SDS011;4772;52.382;9.752;2023-10-19T09:14:30;8.93;;;8.13;;
9467;SDS011;4772;52.382;9.752;2023-10-19T09:16:58;9.57;;;8.57;;
9467;SDS011;4772;52.382;9.752;2023-10-19T09:22:21;8.90;;;8.00;;
9467;SDS011;4772;52.382;9.752;2023-10-19T09:24:48;9.57;;;8.57;;
9467;SDS011;4772;52.382;9.752;2023-10-19T09:27:17;11.77;;;8.83;;
9467;SDS011;4772;52.382;9.752;2023-10-19T09:29:44;9.03;;;8.13;;
9467;SDS011;4772;52.382;9.752;2023-10-19T09:32:10;9.87;;;8.20;;
9467;SDS011;4772;52.382;9.752;2023-10-19T09:34:38;9.53;;;8.40;;
9467;SDS011;4772;52.382;9.752;2023-10-19T09:37:08;9.00;;;8.10;;
9467;SDS011;4772;52.382;9.752;2023-10-19T09:39:34;8.53;;;7.73;;
9467;SDS011;4772;52.382;9.752;2023-10-19T09:42:01;9.07;;;8.17;;
9467;SDS011;4772;52.382;9.752;2023-10-19T09:44:33;11.87;;;8.10;;
9467;SDS011;4772;52.382;9.752;2023-10-19T09:47:01;8.97;;;8.10;;
9467;SDS011;4772;52.382;9.752;2023-10-19T09:49:28;8.67;;;7.50;;
9467;SDS011;4772;52.382;9.752;2023-10-19T09:51:54;9.40;;;8.40;;
9467;SDS011;4772;52.382;9.752;2023-10-19T09:54:22;8.37;;;7.50;;
9467;SDS011;4772;52.382;9.752;2023-10-19T09:56:58;9.83;;;8.50;;
9467;SDS011;4772;52.382;9.752;2023-10-19T09:59:37;9.00;;;8.10;;
9467;SDS011;4772;52.382;9.752;2023-10-19T10:02:05;9.37;;;8.47;;
9467;SDS011;4772;52.382;9.752;2023-10-19T10:04:32;10.60;;;9.50;;
9467;SDS011;4772;52.382;9.752;2023-10-19T10:06:58;10.57;;;9.57;;
9467;SDS011;4772;52.382;9.752;2023-10-19T10:09:28;10.57;;;9.40;;
9467;SDS011;4772;52.382;9.752;2023-10-19T10:11:55;11.43;;;9.43;;
9467;SDS011;4772;52.382;9.752;2023-10-19T10:14:30;10.87;;;8.93;;
9467;SDS011;4772;52.382;9.752;2023-10-19T10:17:01;11.07;;;9.70;;
9467;SDS011;4772;52.382;9.752;2023-10-19T10:19:27;11.00;;;9.77;;
9467;SDS011;4772;52.382;9.752;2023-10-19T10:22:03;12.70;;;9.60;;
9467;SDS011;4772;52.382;9.752;2023-10-19T10:24:31;12.60;;;11.30;;
9467;SDS011;4772;52.382;9.752;2023-10-19T10:26:57;16.17;;;12.93;;
9467;SDS011;4772;52.382;9.752;2023-10-19T10:29:25;11.03;;;9.93;;
9467;SDS011;4772;52.382;9.752;2023-10-19T10:31:51;11.37;;;9.70;;
9467;SDS011;4772;52.382;9.752;2023-10-19T10:37:00;11.83;;;9.90;;
9467;SDS011;4772;52.382;9.752;2023-10-19T10:39:27;10.50;;;8.90;;
9467;SDS011;4772;52.382;9.752;2023-10-19T10:41:58;10.63;;;9.47;;
9467;SDS011;4772;52.382;9.752;2023-10-19T10:47:06;10.87;;;9.80;;
9467;SDS011;4772;52.382;9.752;2023-10-19T10:49:35;10.90;;;9.73;;
9467;SDS011;4772;52.382;9.752;2023-10-19T10:52:01;9.93;;;8.93;;
9467;SDS011;4772;52.382;9.752;2023-10-19T10:54:27;10.80;;;9.70;;
9467;SDS011;4772;52.382;9.752;2023-10-19T10:56:54;9.03;;;8.13;;
9467;SDS011;4772;52.382;9.752;2023-10-19T10:59:19;8.80;;;7.90;;
9467;SDS011;4772;52.382;9.752;2023-10-19T11:01:45;9.67;;;8.50;;
9467;SDS011;4772;52.382;9.752;2023-10-19T11:04:11;9.60;;;8.47;;
9467;SDS011;4772;52.382;9.752;2023-10-19T11:06:52;9.53;;;8.43;;
9467;SDS011;4772;52.382;9.752;2023-10-19T11:09:20;9.50;;;8.50;;
9467;SDS011;4772;52.382;9.752;2023-10-19T11:11:47;9.53;;;8.63;;
9467;SDS011;4772;52.382;9.752;2023-10-19T11:14:14;11.00;;;8.93;;
9467;SDS011;4772;52.382;9.752;2023-10-19T11:16:40;10.47;;;8.80;;
9467;SDS011;4772;52.382;9.752;2023-10-19T11:19:08;9.00;;;8.10;;
9467;SDS011;4772;52.382;9.752;2023-10-19T11:21:35;8.90;;;8.10;;
9467;SDS011;4772;52.382;9.752;2023-10-19T11:24:01;9.77;;;8.03;;
9467;SDS011;4772;52.382;9.752;2023-10-19T11:26:27;8.73;;;7.90;;
9467;SDS011;4772;52.382;9.752;2023-10-19T11:29:00;9.23;;;8.33;;
9467;SDS011;4772;52.382;9.752;2023-10-19T11:31:29;8.50;;;7.70;;
9467;SDS011;4772;52.382;9.752;2023-10-19T11:34:02;8.93;;;8.03;;
9467;SDS011;4772;52.382;9.752;2023-10-19T11:36:29;8.83;;;7.93;;
9467;SDS011;4772;52.382;9.752;2023-10-19T11:38:56;9.20;;;8.33;;
9467;SDS011;4772;52.382;9.752;2023-10-19T11:41:22;9.07;;;8.17;;
9467;SDS011;4772;52.382;9.752;2023-10-19T11:43:48;8.43;;;7.63;;
9467;SDS011;4772;52.382;9.752;2023-10-19T11:46:15;8.73;;;7.10;;
9467;SDS011;4772;52.382;9.752;2023-10-19T11:48:42;8.90;;;7.90;;
9467;SDS011;4772;52.382;9.752;2023-10-19T11:51:08;8.43;;;7.60;;
9467;SDS011;4772;52.382;9.752;2023-10-19T11:53:36;9.07;;;8.03;;
9467;SDS011;4772;52.382;9.752;2023-10-19T11:56:03;8.87;;;8.03;;
9467;SDS011;4772;52.382;9.752;2023-10-19T11:58:30;10.77;;;7.50;;
9467;SDS011;4772;52.382;9.752;2023-10-19T12:01:00;9.60;;;7.90;;
9467;SDS011;4772;52.382;9.752;2023-10-19T12:03:26;10.80;;;8.37;;
9467;SDS011;4772;52.382;9.752;2023-10-19T12:05:53;11.33;;;8.90;;
9467;SDS011;4772;52.382;9.752;2023-10-19T12:08:20;9.30;;;8.40;;
9467;SDS011;4772;52.382;9.752;2023-10-19T12:10:46;12.50;;;9.67;;
9467;SDS011;4772;52.382;9.752;2023-10-19T12:13:12;10.47;;;9.33;;
9467;SDS011;4772;52.382;9.752;2023-10-19T12:15:38;9.37;;;8.17;;
9467;SDS011;4772;52.382;9.752;2023-10-19T12:18:04;9.07;;;8.27;;
9467;SDS011;4772;52.382;9.752;2023-10-19T12:20:32;11.70;;;8.77;;
9467;SDS011;4772;52.382;9.752;2023-10-19T12:23:00;10.60;;;9.43;;
9467;SDS011;4772;52.382;9.752;2023-10-19T12:25:26;11.30;;;9.73;;
9467;SDS011;4772;52.382;9.752;2023-10-19T12:27:57;11.53;;;9.47;;
9467;SDS011;4772;52.382;9.752;2023-10-19T12:30:23;12.43;;;9.40;;
9467;SDS011;4772;52.382;9.752;2023-10-19T12:32:51;12.90;;;10.53;;
9467;SDS011;4772;52.382;9.752;2023-10-19T12:35:17;12.37;;;10.70;;
9467;SDS011;4772;52.382;9.752;2023-10-19T12:37:55;13.17;;;10.97;;
9467;SDS011;4772;52.382;9.752;2023-10-19T12:40:21;15.23;;;11.70;;
9467;SDS011;4772;52.382;9.752;2023-10-19T12:43:00;17.27;;;12.90;;
9467;SDS011;4772;52.382;9.752;2023-10-19T12:45:28;18.50;;;13.10;;
9467;SDS011;4772;52.382;9.752;2023-10-19T12:47:54;17.80;;;13.50;;
9467;SDS011;4772;52.382;9.752;2023-10-19T12:50:21;18.58;;;14.55;;
9467;SDS011;4772;52.382;9.752;2023-10-19T12:52:51;16.70;;;13.43;;
9467;SDS011;4772;52.382;9.752;2023-10-19T12:55:17;14.53;;;12.70;;
9467;SDS011;4772;52.382;9.752;2023-10-19T12:57:43;17.07;;;13.30;;
9467;SDS011;4772;52.382;9.752;2023-10-19T13:00:10;15.63;;;13.10;;
9467;SDS011;4772;52.382;9.752;2023-10-19T13:02:51;14.97;;;13.37;;
9467;SDS011;4772;52.382;9.752;2023-10-19T13:05:32;16.77;;;14.00;;
9467;SDS011;4772;52.382;9.752;2023-10-19T13:07:58;16.97;;;13.47;;
9467;SDS011;4772;52.382;9.752;2023-10-19T13:10:28;18.70;;;14.40;;
9467;SDS011;4772;52.382;9.752;2023-10-19T13:13:04;16.20;;;13.60;;
9467;SDS011;4772;52.382;9.752;2023-10-19T13:15:33;18.07;;;14.13;;
9467;SDS011;4772;52.382;9.752;2023-10-19T13:18:02;15.13;;;13.50;;
9467;SDS011;4772;52.382;9.752;2023-10-19T13:20:30;18.50;;;14.37;;
9467;SDS011;4772;52.382;9.752;2023-10-19T13:23:00;18.80;;;14.73;;
9467;SDS011;4772;52.382;9.752;2023-10-19T13:25:29;17.47;;;14.03;;
9467;SDS011;4772;52.382;9.752;2023-10-19T13:28:12;18.87;;;14.80;;
9467;SDS011;4772;52.382;9.752;2023-10-19T13:30:39;19.47;;;15.10;;
9467;SDS011;4772;52.382;9.752;2023-10-19T13:33:05;21.47;;;16.83;;
9467;SDS011;4772;52.382;9.752;2023-10-19T13:35:34;21.87;;;16.67;;
9467;SDS011;4772;52.382;9.752;2023-10-19T13:38:00;19.07;;;15.67;;
9467;SDS011;4772;52.382;9.752;2023-10-19T13:40:26;16.70;;;14.47;;
9467;SDS011;4772;52.382;9.752;2023-10-19T13:42:55;18.97;;;14.70;;
9467;SDS011;4772;52.382;9.752;2023-10-19T13:45:21;18.20;;;14.23;;
9467;SDS011;4772;52.382;9.752;2023-10-19T13:47:48;18.50;;;14.50;;
9467;SDS011;4772;52.382;9.752;2023-10-19T13:50:14;20.37;;;14.60;;
9467;SDS011;4772;52.382;9.752;2023-10-19T13:52:40;18.03;;;15.40;;
9467;SDS011;4772;52.382;9.752;2023-10-19T13:55:06;19.30;;;15.40;;
9467;SDS011;4772;52.382;9.752;2023-10-19T13:57:33;22.23;;;15.23;;
9467;SDS011;4772;52.382;9.752;2023-10-19T13:59:59;20.93;;;16.07;;
9467;SDS011;4772;52.382;9.752;2023-10-19T14:02:26;18.90;;;15.30;;
9467;SDS011;4772;52.382;9.752;2023-10-19T14:04:52;20.93;;;16.00;;
9467;SDS011;4772;52.382;9.752;2023-10-19T14:07:18;18.43;;;15.83;;
9467;SDS011;4772;52.382;9.752;2023-10-19T14:09:45;21.83;;;16.30;;
9467;SDS011;4772;52.382;9.752;2023-10-19T14:12:10;26.17;;;16.57;;
9467;SDS011;4772;52.382;9.752;2023-10-19T14:14:37;20.43;;;16.20;;
9467;SDS011;4772;52.382;9.752;2023-10-19T14:17:03;19.53;;;15.90;;
9467;SDS011;4772;52.382;9.752;2023-10-19T14:19:30;23.93;;;16.40;;
9467;SDS011;4772;52.382;9.752;2023-10-19T14:21:56;20.40;;;16.33;;
9467;SDS011;4772;52.382;9.752;2023-10-19T14:24:22;25.33;;;16.70;;
9467;SDS011;4772;52.382;9.752;2023-10-19T14:26:48;27.20;;;18.40;;
9467;SDS011;4772;52.382;9.752;2023-10-19T14:29:14;24.77;;;18.43;;
9467;SDS011;4772;52.382;9.752;2023-10-19T14:31:40;26.80;;;19.43;;
9467;SDS011;4772;52.382;9.752;2023-10-19T14:34:06;27.97;;;18.90;;
9467;SDS011;4772;52.382;9.752;2023-10-19T14:36:33;25.23;;;18.20;;
9467;SDS011;4772;52.382;9.752;2023-10-19T14:38:59;25.93;;;19.50;;
9467;SDS011;4772;52.382;9.752;2023-10-19T14:41:25;24.23;;;19.30;;
9467;SDS011;4772;52.382;9.752;2023-10-19T14:43:51;26.07;;;19.50;;
9467;SDS011;4772;52.382;9.752;2023-10-19T14:46:18;26.10;;;19.23;;
9467;SDS011;4772;52.382;9.752;2023-10-19T14:48:44;26.13;;;19.77;;
9467;SDS011;4772;52.382;9.752;2023-10-19T14:51:10;25.73;;;20.00;;
9467;SDS011;4772;52.382;9.752;2023-10-19T14:53:37;28.27;;;21.03;;
9467;SDS011;4772;52.382;9.752;2023-10-19T14:56:03;27.93;;;21.50;;
9467;SDS011;4772;52.382;9.752;2023-10-19T14:58:30;30.80;;;21.63;;
9467;SDS011;4772;52.382;9.752;2023-10-19T15:00:56;29.07;;;21.97;;
9467;SDS011;4772;52.382;9.752;2023-10-19T15:03:22;29.57;;;22.00;;
9467;SDS011;4772;52.382;9.752;2023-10-19T15:05:51;33.27;;;23.90;;
9467;SDS011;4772;52.382;9.752;2023-10-19T15:08:20;32.43;;;23.23;;
9467;SDS011;4772;52.382;9.752;2023-10-19T15:10:49;31.80;;;22.10;;
9467;SDS011;4772;52.382;9.752;2023-10-19T15:13:16;34.00;;;23.60;;
9467;SDS011;4772;52.382;9.752;2023-10-19T15:15:42;33.87;;;23.30;;